Time;durP1;ratioP1;P1;durP2;ratioP2;P2;SDS_P1;SDS_P2;PMS_P1;PMS_P2;Temp;Humidity;BMP_temperature;BMP_pressure;BME280_temperature;BME280_humidity;BME280_pressure;Samples;Min_cycle;Max_cycle;Signal;HPM_P1;HPM_P2
2021/07/23 00:02:35;;;;;;;30.50;17.77;;;;;;;16.21;69.18;98911.44;513195;1089;103112;-42
2021/07/23 00:12:43;;;;;;;24.93;17.07;;;;;;;16.14;69.22;98900.20;512907;1089;103124;-42
2021/07/23 00:22:50;;;;;;;27.93;15.80;;;;;;;16.13;69.40;98893.27;512917;1090;103444;-42
2021/07/23 00:43:05;;;;;;;23.93;15.10;;;;;;;16.40;69.70;98890.45;512840;1089;103373;-44
2021/07/23 00:53:13;;;;;;;17.83;12.40;;;;;;;16.22;69.91;98895.17;512920;1088;103102;-43
2021/07/23 01:03:22;;;;;;;17.30;13.68;;;;;;;16.43;69.91;98893.40;513024;1088;103121;-44
2021/07/23 01:13:30;;;;;;;20.60;13.37;;;;;;;16.31;69.85;98884.79;513832;1088;103175;-43
2021/07/23 01:23:40;;;;;;;20.25;13.70;;;;;;;16.39;70.42;98892.31;513048;1088;103530;-42
2021/07/23 01:33:48;;;;;;;19.57;12.67;;;;;;;16.38;70.44;98890.71;512978;1088;103125;-42
2021/07/23 01:43:56;;;;;;;21.17;12.73;;;;;;;16.26;70.58;98884.77;512959;1088;103528;-42
2021/07/23 01:54:04;;;;;;;23.33;14.30;;;;;;;16.19;70.58;98870.88;512802;1089;103124;-42
2021/07/23 02:04:12;;;;;;;21.53;12.00;;;;;;;16.34;71.13;98873.63;512896;1089;103153;-41
2021/07/23 02:14:20;;;;;;;28.90;16.10;;;;;;;16.21;70.91;98855.41;512912;1089;103045;-42
2021/07/23 02:24:27;;;;;;;26.07;17.57;;;;;;;16.11;71.00;98882.05;512998;1089;103131;-43
2021/07/23 02:34:35;;;;;;;29.20;17.95;;;;;;;16.04;71.29;98884.13;512891;1088;103377;-41
2021/07/23 02:44:43;;;;;;;27.80;16.33;;;;;;;15.92;71.34;98869.15;512876;1089;103380;-40
2021/07/23 02:54:51;;;;;;;25.83;15.87;;;;;;;15.95;71.25;98867.83;512792;1088;103101;-44
2021/07/23 03:04:59;;;;;;;31.17;18.10;;;;;;;16.08;71.65;98862.01;512980;1089;103150;-42
2021/07/23 03:15:06;;;;;;;24.47;16.07;;;;;;;16.07;71.61;98863.07;512734;1090;103123;-42
2021/07/23 03:25:15;;;;;;;29.50;17.47;;;;;;;16.24;71.83;98860.22;512934;1088;104535;-43
2021/07/23 03:35:23;;;;;;;27.83;17.40;;;;;;;16.28;71.76;98850.63;512881;1088;103550;-42
2021/07/23 03:45:31;;;;;;;28.10;17.73;;;;;;;16.16;71.77;98850.06;513074;1089;103451;-42
2021/07/23 03:55:39;;;;;;;26.80;16.07;;;;;;;16.13;72.06;98846.05;512845;1088;103121;-42
2021/07/23 04:05:46;;;;;;;29.33;16.58;;;;;;;16.21;71.76;98840.20;512786;1089;103121;-41
2021/07/23 04:15:54;;;;;;;33.43;16.43;;;;;;;16.39;72.06;98835.47;512947;1090;103057;-45
2021/07/23 04:26:03;;;;;;;22.67;15.63;;;;;;;16.73;72.21;98830.50;513060;1088;103424;-42
2021/07/23 04:36:11;;;;;;;26.23;16.37;;;;;;;17.03;71.90;98832.40;512863;1090;104505;-41
2021/07/23 04:46:19;;;;;;;33.43;20.90;;;;;;;17.34;71.98;98838.56;512997;1089;103588;-42
2021/07/23 04:56:27;;;;;;;39.78;20.33;;;;;;;17.65;71.81;98824.08;512932;1089;103121;-43
2021/07/23 05:06:36;;;;;;;26.25;16.35;;;;;;;17.98;71.37;98822.70;512720;1089;103920;-43
2021/07/23 05:16:42;;;;;;;37.90;16.80;;;;;;;18.31;70.55;98813.18;512995;1089;103521;-42
2021/07/23 05:26:49;;;;;;;37.97;16.30;;;;;;;18.76;70.33;98811.34;512985;1089;103284;-42
2021/07/23 05:36:58;;;;;;;26.70;11.93;;;;;;;19.18;69.74;98804.61;512773;1088;103463;-43
2021/07/23 05:47:07;;;;;;;20.73;11.57;;;;;;;19.70;69.07;98808.42;512915;1089;103483;-42
2021/07/23 05:57:16;;;;;;;18.27;10.47;;;;;;;20.39;67.93;98812.42;512872;1088;103150;-42
2021/07/23 06:07:25;;;;;;;14.83;9.83;;;;;;;20.94;67.13;98807.35;513050;1089;103128;-43
2021/07/23 06:17:31;;;;;;;;;;;;;;;21.19;65.86;98809.63;513012;1089;103060;-42
2021/07/23 06:27:39;;;;;;;14.03;9.73;;;;;;;21.38;65.73;98818.48;512958;1089;103185;-41
2021/07/23 06:37:45;;;;;;;;;;;;;;;21.94;64.55;98805.87;512962;1088;103149;-42
2021/07/23 06:47:52;;;;;;;11.80;9.37;;;;;;;22.51;63.87;98819.81;512971;1089;103453;-43
2021/07/23 07:08:07;;;;;;;12.53;8.60;;;;;;;22.88;62.16;98808.73;512928;1088;103214;-42
2021/07/23 07:18:14;;;;;;;13.70;7.30;;;;;;;23.57;60.80;98811.89;513007;1088;103163;-42
2021/07/23 07:28:22;;;;;;;11.70;7.33;;;;;;;23.81;59.71;98811.52;512932;1089;103457;-43
2021/07/23 07:38:38;;;;;;;8.97;7.03;;;;;;;24.15;58.42;98804.64;512734;1088;103119;-43
2021/07/23 07:48:46;;;;;;;11.50;7.20;;;;;;;24.53;58.17;98807.58;512816;1089;103102;-43
2021/07/23 07:58:53;;;;;;;13.73;6.03;;;;;;;24.48;56.72;98805.03;512922;1088;103134;-41
2021/07/23 08:19:09;;;;;;;9.80;7.20;;;;;;;23.99;55.05;98814.28;512927;1087;103456;-43
2021/07/23 08:29:16;;;;;;;11.50;7.17;;;;;;;23.98;54.43;98818.09;512988;1089;103187;-41
2021/07/23 08:39:24;;;;;;;14.37;6.67;;;;;;;24.08;53.06;98806.98;512765;1089;103557;-42
2021/07/23 08:49:32;;;;;;;10.60;6.70;;;;;;;24.79;53.65;98807.58;512872;1089;103151;-43
2021/07/23 08:59:40;;;;;;;12.43;6.33;;;;;;;25.16;52.47;98808.86;513042;1088;103392;-42
2021/07/23 09:09:56;;;;;;;9.57;7.67;;;;;;;26.18;51.70;98808.81;512864;1088;103124;-41
2021/07/23 09:20:07;;;;;;;7.73;6.30;;;;;;;25.64;50.42;98805.07;512859;1089;103422;-42
2021/07/23 09:30:13;;;;;;;12.17;6.60;;;;;;;25.75;49.97;98797.40;513076;1089;103548;-43
2021/07/23 09:40:21;;;;;;;9.77;6.13;;;;;;;26.52;49.21;98790.78;512995;1089;103137;-42
2021/07/23 09:50:28;;;;;;;6.43;5.47;;;;;;;26.29;44.30;98788.35;513050;1088;103060;-42
2021/07/23 10:00:35;;;;;;;9.80;5.70;;;;;;;26.80;46.81;98772.03;512923;1089;103488;-43
2021/07/23 10:20:54;;;;;;;9.33;6.23;;;;;;;26.75;42.19;98747.83;512830;1089;103128;-42
2021/07/23 10:31:01;;;;;;;8.83;7.20;;;;;;;26.36;45.09;98758.03;512850;1089;103121;-44
2021/07/23 11:01:54;;;;;;;22.73;6.03;;;;;;;24.88;44.86;98735.37;513099;1088;103469;-42
2021/07/23 11:12:16;;;;;;;8.30;5.83;;;;;;;24.31;45.26;98734.75;512966;1089;103145;-45
2021/07/23 11:22:26;;;;;;;7.80;5.90;;;;;;;24.35;46.04;98728.38;513193;1089;103448;-40
2021/07/23 11:32:47;;;;;;;7.93;6.63;;;;;;;24.47;45.97;98723.16;513151;1088;103166;-41
2021/07/23 11:42:56;;;;;;;9.90;6.45;;;;;;;24.82;46.41;98716.91;513147;1088;103434;-42
2021/07/23 11:53:05;;;;;;;11.17;6.60;;;;;;;25.38;45.85;98723.95;513138;1089;103419;-40
2021/07/23 12:03:19;;;;;;;5.93;5.10;;;;;;;25.35;44.40;98711.87;513074;1088;103536;-40
2021/07/23 12:13:30;;;;;;;10.43;6.50;;;;;;;25.46;43.49;98708.78;513145;1088;103120;-42
2021/07/23 12:23:38;;;;;;;6.70;5.55;;;;;;;25.29;43.18;98720.47;513008;1090;103099;-41
2021/07/23 12:33:46;;;;;;;9.10;5.87;;;;;;;25.49;43.53;98711.63;512955;1088;103133;-44
2021/07/23 12:44:03;;;;;;;15.57;6.77;;;;;;;25.82;43.88;98708.32;513073;1089;103246;-42
2021/07/23 12:54:12;;;;;;;9.27;6.33;;;;;;;25.95;43.78;98709.98;512968;1088;103477;-40
2021/07/23 13:04:19;;;;;;;10.10;6.50;;;;;;;25.79;43.48;98709.77;512998;1089;103103;-43
2021/07/23 13:14:27;;;;;;;8.87;6.73;;;;;;;25.83;43.84;98697.16;513040;1089;103139;-41
2021/07/23 13:24:37;;;;;;;8.63;6.20;;;;;;;25.85;44.21;98694.12;513047;1089;103071;-43
2021/07/23 13:34:44;;;;;;;6.93;6.20;;;;;;;26.03;44.04;98684.76;512988;1089;104177;-42
2021/07/23 13:44:51;;;;;;;10.90;6.10;;;;;;;25.87;43.94;98681.04;513018;1088;103103;-40
2021/07/23 13:54:59;;;;;;;7.90;7.10;;;;;;;25.97;43.91;98678.72;513016;1089;103046;-43
2021/07/23 14:05:06;;;;;;;8.30;5.87;;;;;;;26.16;43.71;98680.19;513020;1089;103119;-42
2021/07/23 14:15:14;;;;;;;10.90;6.18;;;;;;;26.26;43.46;98686.02;513135;1088;103357;-41
2021/07/23 14:25:22;;;;;;;10.53;5.63;;;;;;;26.14;43.39;98677.80;512897;1088;103507;-44
2021/07/23 14:35:30;;;;;;;7.77;6.43;;;;;;;26.17;43.03;98660.09;512930;1089;103662;-43
2021/07/23 14:45:40;;;;;;;6.90;6.15;;;;;;;26.12;42.13;98658.38;512974;1088;103106;-44
2021/07/23 14:55:46;;;;;;;9.65;6.10;;;;;;;26.14;42.20;98642.58;513170;1089;103124;-43
2021/07/23 15:05:53;;;;;;;6.20;5.23;;;;;;;25.95;41.52;98648.45;513119;1089;103099;-44
2021/07/23 15:16:01;;;;;;;11.03;6.17;;;;;;;25.62;41.81;98645.64;512893;1088;103269;-43
2021/07/23 15:26:09;;;;;;;10.93;6.30;;;;;;;25.38;41.92;98645.45;513247;1088;103461;-40
2021/07/23 15:36:16;;;;;;;9.33;6.47;;;;;;;24.92;41.93;98630.03;513088;1089;103120;-43
2021/07/23 15:46:24;;;;;;;7.20;6.20;;;;;;;24.85;42.03;98625.13;512852;1088;103062;-42
2021/07/23 16:16:46;;;;;;;12.60;7.03;;;;;;;24.29;42.82;98616.17;513179;1088;103146;-42
2021/07/23 16:26:56;;;;;;;8.30;7.10;;;;;;;24.16;43.13;98603.61;512949;1089;103645;-41
2021/07/23 16:37:05;;;;;;;10.97;6.63;;;;;;;24.05;43.87;98610.44;513007;1089;103380;-41
2021/07/23 16:47:12;;;;;;;8.60;7.37;;;;;;;23.95;44.16;98608.07;512977;1089;104142;-42
2021/07/23 16:57:20;;;;;;;13.90;7.57;;;;;;;23.71;44.65;98600.44;513042;1090;103163;-42
2021/07/23 17:17:35;;;;;;;9.80;7.47;;;;;;;23.26;45.57;98611.42;512918;1089;103505;-42
2021/07/23 17:27:43;;;;;;;13.10;9.30;;;;;;;23.09;46.43;98600.57;513405;1088;103460;-41
2021/07/23 17:47:57;;;;;;;11.33;8.10;;;;;;;22.63;47.76;98593.68;513094;1089;103152;-42
2021/07/23 17:58:03;;;;;;;20.80;8.63;;;;;;;22.43;48.23;98604.97;513300;1089;103457;-41
2021/07/23 18:08:11;;;;;;;9.45;8.25;;;;;;;22.14;49.20;98594.64;513309;1089;103531;-42
2021/07/23 18:18:18;;;;;;;8.93;7.10;;;;;;;21.73;49.57;98600.92;513037;1088;103402;-41
2021/07/23 18:28:26;;;;;;;13.97;8.60;;;;;;;21.26;50.14;98613.75;512851;1089;103117;-40
2021/07/23 18:38:32;;;;;;;;;;;;;;;20.72;51.43;98609.12;512970;1090;103452;-42
2021/07/23 18:48:39;;;;;;;16.25;10.20;;;;;;;20.31;52.32;98619.72;512991;1088;103099;-42
2021/07/23 18:58:46;;;;;;;15.97;9.70;;;;;;;19.91;53.08;98617.38;512941;1089;103268;-41
2021/07/23 19:08:54;;;;;;;20.85;8.83;;;;;;;19.46;53.59;98629.49;512997;1088;103107;-40
2021/07/23 19:29:10;;;;;;;17.88;11.80;;;;;;;18.99;55.78;98633.78;512697;1088;103102;-43
2021/07/23 19:39:16;;;;;;;20.75;13.80;;;;;;;18.68;56.33;98633.27;512956;1089;103117;-41
2021/07/23 19:49:23;;;;;;;18.97;13.53;;;;;;;18.40;57.06;98629.47;512851;1089;103535;-43
2021/07/23 20:09:39;;;;;;;24.00;13.00;;;;;;;17.90;57.93;98635.98;513090;1088;103508;-43
2021/07/23 20:19:46;;;;;;;22.93;13.20;;;;;;;17.61;58.57;98643.08;512824;1089;103105;-42
2021/07/23 20:29:52;;;;;;;22.83;13.13;;;;;;;17.51;58.97;98646.61;512930;1089;103504;-42
2021/07/23 20:40:00;;;;;;;19.83;12.17;;;;;;;17.39;59.33;98648.78;512939;1089;103175;-42
2021/07/23 20:50:11;;;;;;;26.20;17.40;;;;;;;17.40;59.64;98647.70;512822;1088;103461;-42
2021/07/23 21:00:18;;;;;;;26.47;17.57;;;;;;;17.36;60.47;98646.66;513110;1090;103492;-43
2021/07/23 21:10:27;;;;;;;24.67;16.67;;;;;;;17.10;60.82;98654.75;512933;1088;103453;-42
2021/07/23 21:20:34;;;;;;;27.20;16.53;;;;;;;16.84;60.98;98658.55;512909;1090;103099;-41
2021/07/23 21:30:43;;;;;;;27.78;17.08;;;;;;;16.70;61.47;98662.83;512950;1088;103376;-43
2021/07/23 21:51:05;;;;;;;27.23;17.70;;;;;;;16.69;62.21;98664.70;513060;1089;103089;-42
2021/07/23 22:01:12;;;;;;;30.00;19.20;;;;;;;16.46;62.74;98666.00;513248;1088;103099;-42
2021/07/23 22:11:20;;;;;;;27.23;19.03;;;;;;;16.45;63.20;98660.94;513024;1089;103531;-42
2021/07/23 22:21:28;;;;;;;36.60;21.30;;;;;;;16.44;62.95;98654.80;512970;1089;103168;-41
2021/07/23 22:31:35;;;;;;;31.70;21.90;;;;;;;16.46;63.52;98660.67;513110;1088;103127;-42
2021/07/23 22:41:43;;;;;;;30.87;19.97;;;;;;;16.35;63.83;98653.73;512954;1089;103444;-43
2021/07/23 22:51:51;;;;;;;30.87;20.37;;;;;;;16.32;64.39;98646.24;512964;1089;103143;-43
2021/07/23 23:01:58;;;;;;;35.73;20.97;;;;;;;16.20;64.52;98648.38;512954;1090;103575;-42
2021/07/23 23:12:06;;;;;;;32.33;21.10;;;;;;;15.94;64.71;98645.68;512951;1088;103160;-42
2021/07/23 23:22:14;;;;;;;29.68;20.05;;;;;;;15.88;65.40;98638.74;512934;1088;103143;-42
2021/07/23 23:42:27;;;;;;;31.97;20.37;;;;;;;15.77;65.82;98629.10;513140;1089;103097;-42
2021/07/23 23:52:34;;;;;;;30.60;20.87;;;;;;;15.77;66.11;98631.77;513004;1089;103123;-42
